createdAt,value
2022-11-27T00:03:04.461Z,5.18
2022-11-27T00:08:06.428Z,4.80
2022-11-27T00:13:08.310Z,5.12
2022-11-27T00:18:10.252Z,5.49
2022-11-27T00:23:12.096Z,5.55
2022-11-27T00:28:14.155Z,5.25
2022-11-27T00:33:16.128Z,5.31
2022-11-27T00:38:18.085Z,5.57
2022-11-27T00:43:19.995Z,5.31
2022-11-27T00:48:21.961Z,5.53
2022-11-27T00:53:23.901Z,5.65
2022-11-27T00:58:26.984Z,5.54
2022-11-27T01:03:30.069Z,5.51
2022-11-27T01:08:32.868Z,5.75
2022-11-27T01:13:36.544Z,5.46
2022-11-27T01:18:40.055Z,5.55
2022-11-27T01:23:44.000Z,5.87
2022-11-27T01:28:46.688Z,5.84
2022-11-27T01:33:58.106Z,5.96
2022-11-27T01:39:00.971Z,6.01
2022-11-27T01:44:24.480Z,6.09
2022-11-27T01:49:35.851Z,6.08
2022-11-27T01:54:45.735Z,6.10
2022-11-27T01:59:49.312Z,5.93
2022-11-27T02:04:51.287Z,5.97
2022-11-27T02:09:53.252Z,6.05
2022-11-27T02:15:08.124Z,5.92
2022-11-27T02:20:37.651Z,5.97
2022-11-27T02:26:08.175Z,6.12
2022-11-27T02:31:21.871Z,6.25
2022-11-27T02:36:29.954Z,6.13
2022-11-27T02:41:57.817Z,6.15
2022-11-27T02:47:00.440Z,6.25
2022-11-27T02:52:03.859Z,6.20
2022-11-27T02:57:08.067Z,6.24
2022-11-27T03:02:16.989Z,6.15
2022-11-27T03:07:38.630Z,6.07
2022-11-27T03:12:40.659Z,6.19
2022-11-27T03:18:19.498Z,6.23
2022-11-27T03:23:21.384Z,6.30
2022-11-27T03:28:23.732Z,6.15
2022-11-27T03:33:25.929Z,6.34
2022-11-27T03:38:28.219Z,6.16
2022-11-27T03:43:38.502Z,6.15
2022-11-27T03:48:57.336Z,6.20
2022-11-27T03:54:30.404Z,6.31
2022-11-27T03:59:40.704Z,6.30
2022-11-27T04:04:42.790Z,6.36
2022-11-27T04:09:44.866Z,6.34
2022-11-27T04:14:46.669Z,6.38
2022-11-27T04:19:48.780Z,6.38
2022-11-27T04:24:51.055Z,6.45
2022-11-27T04:29:52.994Z,6.37
2022-11-27T04:34:55.030Z,6.49
2022-11-27T04:39:57.027Z,6.45
2022-11-27T04:44:58.882Z,6.45
2022-11-27T04:50:00.794Z,6.46
2022-11-27T04:55:03.255Z,6.45
2022-11-27T05:00:06.020Z,6.51
2022-11-27T05:05:14.547Z,6.55
2022-11-27T05:10:16.522Z,6.54
2022-11-27T05:15:18.519Z,6.66
2022-11-27T05:20:20.458Z,6.64
2022-11-27T05:25:22.472Z,6.69
2022-11-27T05:30:24.329Z,6.80
2022-11-27T05:35:26.531Z,6.71
2022-11-27T05:40:28.476Z,6.82
2022-11-27T05:45:30.676Z,6.87
2022-11-27T05:50:33.650Z,6.84
2022-11-27T05:55:35.640Z,6.93
2022-11-27T06:00:37.596Z,6.91
2022-11-27T06:05:40.497Z,6.76
2022-11-27T06:10:42.419Z,6.89
2022-11-27T06:15:44.551Z,6.93
2022-11-27T06:20:52.787Z,6.95
2022-11-27T06:25:54.908Z,6.86
2022-11-27T06:30:56.724Z,6.76
2022-11-27T06:35:58.817Z,6.63
2022-11-27T06:41:21.409Z,6.67
2022-11-27T06:46:24.547Z,6.61
2022-11-27T06:51:30.752Z,6.65
2022-11-27T06:56:33.007Z,6.74
2022-11-27T07:01:35.278Z,6.76
2022-11-27T07:06:37.632Z,6.74
2022-11-27T07:11:39.998Z,6.67
2022-11-27T07:16:41.997Z,6.85
2022-11-27T07:21:44.134Z,6.69
2022-11-27T07:26:46.110Z,6.95
2022-11-27T07:31:50.544Z,6.97
2022-11-27T07:36:53.451Z,7.10
2022-11-27T07:41:59.887Z,7.25
2022-11-27T07:47:02.211Z,7.22
2022-11-27T07:52:04.267Z,7.02
2022-11-27T07:57:06.446Z,7.27
2022-11-27T08:02:12.727Z,7.37
2022-11-27T08:07:14.686Z,7.46
2022-11-27T08:12:16.621Z,7.45
2022-11-27T08:17:18.684Z,7.65
2022-11-27T08:22:21.767Z,7.62
2022-11-27T08:27:23.643Z,7.46
2022-11-27T08:32:26.027Z,7.58
2022-11-27T08:37:28.100Z,7.43
2022-11-27T08:42:29.991Z,7.61
2022-11-27T08:47:32.543Z,7.64
2022-11-27T08:52:34.480Z,7.85
2022-11-27T08:57:36.517Z,7.94
2022-11-27T09:02:38.363Z,8.08
2022-11-27T09:07:41.447Z,8.14
2022-11-27T09:12:44.583Z,8.16
2022-11-27T09:17:46.504Z,7.92
2022-11-27T09:22:48.392Z,8.31
2022-11-27T09:27:50.319Z,8.26
2022-11-27T09:32:52.302Z,8.47
2022-11-27T09:37:54.357Z,8.68
2022-11-27T09:43:09.767Z,8.53
2022-11-27T09:48:18.879Z,8.70
2022-11-27T09:53:27.033Z,8.73
2022-11-27T09:58:43.510Z,8.73
2022-11-27T10:03:46.500Z,8.88
2022-11-27T10:08:59.471Z,9.10
2022-11-27T10:14:02.712Z,9.20
2022-11-27T10:19:26.631Z,9.09
2022-11-27T10:24:42.154Z,9.24
2022-11-27T10:29:52.210Z,9.26
2022-11-27T10:35:01.342Z,9.44
2022-11-27T10:40:18.208Z,9.31
2022-11-27T10:45:29.269Z,9.29
2022-11-27T10:50:31.206Z,9.30
2022-11-27T10:55:54.411Z,9.66
2022-11-27T11:01:10.934Z,9.47
2022-11-27T11:06:22.640Z,9.68
2022-11-27T11:11:27.008Z,9.59
2022-11-27T11:16:34.889Z,9.57
2022-11-27T11:21:42.573Z,9.61
2022-11-27T11:26:49.247Z,9.49
2022-11-27T11:31:51.396Z,9.57
2022-11-27T11:37:02.068Z,9.62
2022-11-27T11:42:11.039Z,9.52
2022-11-27T11:47:23.148Z,9.62
2022-11-27T11:52:43.661Z,9.69
2022-11-27T11:58:30.002Z,9.65
2022-11-27T12:03:46.105Z,9.64
2022-11-27T12:08:56.697Z,9.59
2022-11-27T12:14:22.767Z,9.50
2022-11-27T12:19:39.168Z,9.59
2022-11-27T12:25:08.906Z,9.42
2022-11-27T12:30:23.671Z,9.44
2022-11-27T12:35:54.851Z,9.38
2022-11-27T12:41:02.941Z,9.53
2022-11-27T12:46:30.175Z,9.60
2022-11-27T12:51:37.825Z,9.60
2022-11-27T12:56:50.591Z,9.59
2022-11-27T13:02:04.468Z,9.51
2022-11-27T13:07:20.442Z,9.39
2022-11-27T13:13:15.850Z,9.46
2022-11-27T13:19:05.756Z,9.47
2022-11-27T13:24:12.758Z,9.41
2022-11-27T13:29:42.973Z,9.38
2022-11-27T13:34:47.287Z,9.30
2022-11-27T13:39:49.284Z,9.27
2022-11-27T13:45:11.233Z,9.30
2022-11-27T13:50:20.025Z,9.25
2022-11-27T13:55:28.127Z,9.15
2022-11-27T14:00:37.237Z,9.11
2022-11-27T14:05:42.419Z,9.06
2022-11-27T14:10:55.635Z,9.08
2022-11-27T14:16:05.138Z,9.01
2022-11-27T14:21:07.132Z,8.90
2022-11-27T14:26:15.864Z,8.80
2022-11-27T14:31:28.824Z,8.82
2022-11-27T14:36:34.505Z,8.86
2022-11-27T14:41:36.652Z,8.72
2022-11-27T14:46:38.745Z,8.52
2022-11-27T14:51:41.184Z,8.43
2022-11-27T14:56:44.955Z,8.56
2022-11-27T15:01:57.394Z,8.60
2022-11-27T15:07:00.127Z,8.61
2022-11-27T15:12:27.747Z,8.63
2022-11-27T15:17:32.651Z,8.53
2022-11-27T15:22:36.813Z,8.29
2022-11-27T15:27:46.768Z,8.30
2022-11-27T15:32:53.241Z,8.16
2022-11-27T15:37:57.312Z,8.19
2022-11-27T15:42:59.419Z,7.97
2022-11-27T15:48:02.408Z,7.98
2022-11-27T15:53:04.563Z,7.99
2022-11-27T15:58:06.500Z,8.01
2022-11-27T16:03:08.395Z,8.02
2022-11-27T16:08:11.295Z,7.91
2022-11-27T16:13:13.217Z,7.93
2022-11-27T16:18:15.351Z,7.79
2022-11-27T16:23:17.304Z,7.69
2022-11-27T16:28:19.247Z,7.43
2022-11-27T16:33:25.107Z,7.31
2022-11-27T16:38:27.485Z,7.04
2022-11-27T16:43:33.443Z,6.87
2022-11-27T16:48:36.644Z,6.76
2022-11-27T16:53:40.991Z,6.70
2022-11-27T16:58:44.839Z,6.61
2022-11-27T17:03:47.153Z,6.54
2022-11-27T17:08:49.442Z,6.52
2022-11-27T17:13:52.835Z,6.61
2022-11-27T17:18:55.156Z,6.80
2022-11-27T17:24:02.908Z,6.97
2022-11-27T17:29:11.136Z,7.13
2022-11-27T17:34:14.904Z,7.16
2022-11-27T17:39:16.943Z,7.18
2022-11-27T17:44:19.205Z,7.16
2022-11-27T17:49:22.153Z,7.15
2022-11-27T17:54:25.603Z,7.29
2022-11-27T17:59:29.102Z,7.40
2022-11-27T18:04:32.349Z,7.00
2022-11-27T18:09:34.231Z,7.19
2022-11-27T18:14:36.358Z,7.14
2022-11-27T18:19:38.362Z,7.41
2022-11-27T18:24:43.064Z,7.38
2022-11-27T18:29:45.473Z,7.30
2022-11-27T18:34:47.574Z,7.28
2022-11-27T18:39:50.600Z,7.44
2022-11-27T18:44:52.561Z,7.41
2022-11-27T18:49:55.852Z,7.45
2022-11-27T18:54:58.077Z,7.30
2022-11-27T19:00:00.016Z,7.14
2022-11-27T19:05:04.227Z,7.14
2022-11-27T19:10:07.257Z,7.25
2022-11-27T19:15:09.678Z,7.34
2022-11-27T19:20:11.897Z,7.28
2022-11-27T19:25:13.813Z,7.41
2022-11-27T19:30:15.908Z,7.59
2022-11-27T19:35:22.115Z,7.50
2022-11-27T19:40:25.803Z,7.33
2022-11-27T19:45:28.065Z,7.26
2022-11-27T19:50:30.678Z,7.48
2022-11-27T19:55:33.408Z,7.37
2022-11-27T20:00:35.704Z,7.27
2022-11-27T20:05:38.948Z,7.15
2022-11-27T20:10:40.915Z,7.30
2022-11-27T20:15:42.893Z,7.30
2022-11-27T20:20:44.846Z,7.42
2022-11-27T20:25:49.464Z,7.33
2022-11-27T20:31:02.976Z,7.15
2022-11-27T20:36:12.052Z,7.28
2022-11-27T20:41:17.810Z,7.39
2022-11-27T20:46:20.025Z,7.38
2022-11-27T20:51:27.460Z,7.22
2022-11-27T20:56:36.031Z,7.23
2022-11-27T21:01:39.514Z,7.38
2022-11-27T21:06:47.951Z,7.48
2022-11-27T21:11:50.114Z,7.45
2022-11-27T21:16:52.364Z,7.48
2022-11-27T21:21:54.513Z,7.45
2022-11-27T21:26:57.052Z,7.39
2022-11-27T21:31:59.459Z,7.11
2022-11-27T21:37:01.560Z,7.07
2022-11-27T21:42:03.743Z,6.88
2022-11-27T21:47:11.760Z,6.89
2022-11-27T21:52:13.792Z,6.99
2022-11-27T21:57:17.487Z,7.00
2022-11-27T22:02:19.615Z,7.09
2022-11-27T22:07:21.665Z,7.08
2022-11-27T22:12:23.548Z,7.05
2022-11-27T22:17:25.803Z,7.09
2022-11-27T22:22:28.931Z,6.95
2022-11-27T22:27:31.061Z,7.17
2022-11-27T22:32:33.912Z,7.20
2022-11-27T22:37:35.867Z,6.76
2022-11-27T22:42:38.156Z,7.04
2022-11-27T22:47:40.095Z,7.14
2022-11-27T22:52:48.127Z,6.97
2022-11-27T22:57:50.211Z,7.22
2022-11-27T23:02:52.123Z,7.12
2022-11-27T23:07:54.596Z,7.15
2022-11-27T23:12:56.538Z,7.03
2022-11-27T23:17:59.183Z,7.10
2022-11-27T23:23:01.200Z,7.08
2022-11-27T23:28:03.912Z,7.18
2022-11-27T23:33:05.831Z,7.18
2022-11-27T23:38:07.761Z,7.19
2022-11-27T23:43:24.543Z,7.12
2022-11-27T23:48:26.435Z,6.97
2022-11-27T23:53:29.078Z,7.00
2022-11-27T23:58:31.447Z,7.08
